sensor_id;sensor_type;location;lat;lon;timestamp;temperature;humidity
32524;DHT22;18965;52.242;20.886;2023-08-06T00:00:16;20.60;91.60
32524;DHT22;18965;52.242;20.886;2023-08-06T00:02:42;20.60;91.50
32524;DHT22;18965;52.242;20.886;2023-08-06T00:05:08;20.60;91.50
32524;DHT22;18965;52.242;20.886;2023-08-06T00:07:33;20.60;91.40
32524;DHT22;18965;52.242;20.886;2023-08-06T00:09:59;20.70;91.50
32524;DHT22;18965;52.242;20.886;2023-08-06T00:15:07;20.70;91.40
32524;DHT22;18965;52.242;20.886;2023-08-06T00:17:33;20.70;91.60
32524;DHT22;18965;52.242;20.886;2023-08-06T00:19:59;20.70;91.30
32524;DHT22;18965;52.242;20.886;2023-08-06T00:22:31;20.80;91.30
32524;DHT22;18965;52.242;20.886;2023-08-06T00:24:57;20.80;91.30
32524;DHT22;18965;52.242;20.886;2023-08-06T00:27:24;20.80;91.20
32524;DHT22;18965;52.242;20.886;2023-08-06T00:29:50;20.80;91.20
32524;DHT22;18965;52.242;20.886;2023-08-06T00:32:15;20.80;91.10
32524;DHT22;18965;52.242;20.886;2023-08-06T00:34:41;20.80;91.10
32524;DHT22;18965;52.242;20.886;2023-08-06T00:37:07;20.80;91.00
32524;DHT22;18965;52.242;20.886;2023-08-06T00:39:33;20.80;91.00
32524;DHT22;18965;52.242;20.886;2023-08-06T00:41:58;20.80;91.00
32524;DHT22;18965;52.242;20.886;2023-08-06T00:44:24;20.80;91.00
32524;DHT22;18965;52.242;20.886;2023-08-06T00:46:50;20.80;90.90
32524;DHT22;18965;52.242;20.886;2023-08-06T00:49:16;20.80;90.90
32524;DHT22;18965;52.242;20.886;2023-08-06T00:51:42;20.80;90.80
32524;DHT22;18965;52.242;20.886;2023-08-06T00:54:09;20.80;90.70
32524;DHT22;18965;52.242;20.886;2023-08-06T00:56:36;20.80;90.60
32524;DHT22;18965;52.242;20.886;2023-08-06T00:59:04;20.70;90.60
32524;DHT22;18965;52.242;20.886;2023-08-06T01:01:30;20.70;90.60
32524;DHT22;18965;52.242;20.886;2023-08-06T01:03:56;20.70;90.60
32524;DHT22;18965;52.242;20.886;2023-08-06T01:09:01;20.50;90.60
32524;DHT22;18965;52.242;20.886;2023-08-06T01:11:37;20.50;90.70
32524;DHT22;18965;52.242;20.886;2023-08-06T01:14:33;20.40;90.80
32524;DHT22;18965;52.242;20.886;2023-08-06T01:16:58;20.40;90.90
32524;DHT22;18965;52.242;20.886;2023-08-06T01:19:24;20.30;90.90
32524;DHT22;18965;52.242;20.886;2023-08-06T01:21:49;20.30;91.00
32524;DHT22;18965;52.242;20.886;2023-08-06T01:24:15;20.30;91.00
32524;DHT22;18965;52.242;20.886;2023-08-06T01:26:55;20.20;91.10
32524;DHT22;18965;52.242;20.886;2023-08-06T01:30:07;20.10;91.60
32524;DHT22;18965;52.242;20.886;2023-08-06T01:32:38;20.00;92.00
32524;DHT22;18965;52.242;20.886;2023-08-06T01:35:04;19.90;91.90
32524;DHT22;18965;52.242;20.886;2023-08-06T01:37:31;19.90;91.90
32524;DHT22;18965;52.242;20.886;2023-08-06T01:39:57;19.80;92.30
32524;DHT22;18965;52.242;20.886;2023-08-06T01:42:23;19.80;92.50
32524;DHT22;18965;52.242;20.886;2023-08-06T01:44:49;19.80;92.60
32524;DHT22;18965;52.242;20.886;2023-08-06T01:47:14;19.70;92.60
32524;DHT22;18965;52.242;20.886;2023-08-06T01:49:40;19.70;92.60
32524;DHT22;18965;52.242;20.886;2023-08-06T01:52:06;19.70;93.00
32524;DHT22;18965;52.242;20.886;2023-08-06T01:54:32;19.70;93.00
32524;DHT22;18965;52.242;20.886;2023-08-06T01:56:58;19.70;93.10
32524;DHT22;18965;52.242;20.886;2023-08-06T01:59:24;19.70;93.10
32524;DHT22;18965;52.242;20.886;2023-08-06T02:01:49;19.70;93.30
32524;DHT22;18965;52.242;20.886;2023-08-06T02:04:15;19.70;93.40
32524;DHT22;18965;52.242;20.886;2023-08-06T02:06:41;19.70;93.20
32524;DHT22;18965;52.242;20.886;2023-08-06T02:09:06;19.80;93.30
32524;DHT22;18965;52.242;20.886;2023-08-06T02:11:32;19.80;93.40
32524;DHT22;18965;52.242;20.886;2023-08-06T02:13:58;19.80;93.20
32524;DHT22;18965;52.242;20.886;2023-08-06T02:16:23;19.80;93.10
32524;DHT22;18965;52.242;20.886;2023-08-06T02:18:49;19.90;93.20
32524;DHT22;18965;52.242;20.886;2023-08-06T02:21:15;19.90;93.10
32524;DHT22;18965;52.242;20.886;2023-08-06T02:23:40;19.90;93.20
32524;DHT22;18965;52.242;20.886;2023-08-06T02:26:06;19.90;93.20
32524;DHT22;18965;52.242;20.886;2023-08-06T02:28:32;19.90;93.10
32524;DHT22;18965;52.242;20.886;2023-08-06T02:30:58;19.90;93.10
32524;DHT22;18965;52.242;20.886;2023-08-06T02:33:23;19.90;93.10
32524;DHT22;18965;52.242;20.886;2023-08-06T02:35:49;20.00;93.20
32524;DHT22;18965;52.242;20.886;2023-08-06T02:38:15;20.00;93.10
32524;DHT22;18965;52.242;20.886;2023-08-06T02:40:45;20.00;93.10
32524;DHT22;18965;52.242;20.886;2023-08-06T02:43:10;20.10;93.10
32524;DHT22;18965;52.242;20.886;2023-08-06T02:45:36;20.10;93.40
32524;DHT22;18965;52.242;20.886;2023-08-06T02:48:02;20.00;93.10
32524;DHT22;18965;52.242;20.886;2023-08-06T02:50:28;20.00;93.10
32524;DHT22;18965;52.242;20.886;2023-08-06T02:52:54;20.00;93.20
32524;DHT22;18965;52.242;20.886;2023-08-06T02:55:20;20.10;93.10
32524;DHT22;18965;52.242;20.886;2023-08-06T02:57:45;20.10;93.00
32524;DHT22;18965;52.242;20.886;2023-08-06T03:00:11;20.10;93.00
32524;DHT22;18965;52.242;20.886;2023-08-06T03:02:37;20.10;93.10
32524;DHT22;18965;52.242;20.886;2023-08-06T03:05:03;20.20;93.10
32524;DHT22;18965;52.242;20.886;2023-08-06T03:07:29;20.10;93.10
32524;DHT22;18965;52.242;20.886;2023-08-06T03:09:55;20.20;93.10
32524;DHT22;18965;52.242;20.886;2023-08-06T03:12:20;20.20;93.10
32524;DHT22;18965;52.242;20.886;2023-08-06T03:14:46;20.20;93.10
32524;DHT22;18965;52.242;20.886;2023-08-06T03:17:12;20.20;93.00
32524;DHT22;18965;52.242;20.886;2023-08-06T03:19:38;20.20;93.10
32524;DHT22;18965;52.242;20.886;2023-08-06T03:22:04;20.20;93.00
32524;DHT22;18965;52.242;20.886;2023-08-06T03:24:30;20.30;93.00
32524;DHT22;18965;52.242;20.886;2023-08-06T03:26:55;20.30;93.10
32524;DHT22;18965;52.242;20.886;2023-08-06T03:29:21;20.30;93.00
32524;DHT22;18965;52.242;20.886;2023-08-06T03:31:47;20.40;93.00
32524;DHT22;18965;52.242;20.886;2023-08-06T03:34:13;20.30;93.00
32524;DHT22;18965;52.242;20.886;2023-08-06T03:36:39;20.30;93.00
32524;DHT22;18965;52.242;20.886;2023-08-06T03:39:04;20.40;93.00
32524;DHT22;18965;52.242;20.886;2023-08-06T03:41:30;20.30;93.10
32524;DHT22;18965;52.242;20.886;2023-08-06T03:43:56;20.40;93.10
32524;DHT22;18965;52.242;20.886;2023-08-06T03:46:22;20.40;93.00
32524;DHT22;18965;52.242;20.886;2023-08-06T03:48:47;20.40;93.00
32524;DHT22;18965;52.242;20.886;2023-08-06T03:51:13;20.50;93.00
32524;DHT22;18965;52.242;20.886;2023-08-06T03:53:39;20.50;93.10
32524;DHT22;18965;52.242;20.886;2023-08-06T03:56:04;20.40;93.10
32524;DHT22;18965;52.242;20.886;2023-08-06T03:58:30;20.50;93.00
32524;DHT22;18965;52.242;20.886;2023-08-06T04:01:02;20.50;93.00
32524;DHT22;18965;52.242;20.886;2023-08-06T04:03:29;20.50;93.20
32524;DHT22;18965;52.242;20.886;2023-08-06T04:05:54;20.50;93.00
32524;DHT22;18965;52.242;20.886;2023-08-06T04:08:20;20.50;93.10
32524;DHT22;18965;52.242;20.886;2023-08-06T04:10:50;20.50;93.40
32524;DHT22;18965;52.242;20.886;2023-08-06T04:13:16;20.60;93.10
32524;DHT22;18965;52.242;20.886;2023-08-06T04:15:42;20.60;93.10
32524;DHT22;18965;52.242;20.886;2023-08-06T04:18:08;20.60;93.00
32524;DHT22;18965;52.242;20.886;2023-08-06T04:20:33;20.70;93.00
32524;DHT22;18965;52.242;20.886;2023-08-06T04:22:59;20.70;93.00
32524;DHT22;18965;52.242;20.886;2023-08-06T04:25:31;20.70;92.90
32524;DHT22;18965;52.242;20.886;2023-08-06T04:27:56;20.80;92.90
32524;DHT22;18965;52.242;20.886;2023-08-06T04:30:22;20.80;92.90
32524;DHT22;18965;52.242;20.886;2023-08-06T04:32:50;20.80;92.80
32524;DHT22;18965;52.242;20.886;2023-08-06T04:35:16;20.90;92.80
32524;DHT22;18965;52.242;20.886;2023-08-06T04:37:41;20.90;92.70
32524;DHT22;18965;52.242;20.886;2023-08-06T04:40:08;21.00;92.70
32524;DHT22;18965;52.242;20.886;2023-08-06T04:42:33;21.00;92.60
32524;DHT22;18965;52.242;20.886;2023-08-06T04:45:02;21.10;92.60
32524;DHT22;18965;52.242;20.886;2023-08-06T04:47:28;21.00;92.50
32524;DHT22;18965;52.242;20.886;2023-08-06T04:49:54;21.10;92.40
32524;DHT22;18965;52.242;20.886;2023-08-06T04:52:21;21.20;92.40
32524;DHT22;18965;52.242;20.886;2023-08-06T04:54:46;21.30;92.40
32524;DHT22;18965;52.242;20.886;2023-08-06T04:57:12;21.30;92.20
32524;DHT22;18965;52.242;20.886;2023-08-06T04:59:39;21.40;92.20
32524;DHT22;18965;52.242;20.886;2023-08-06T05:02:05;21.50;92.10
32524;DHT22;18965;52.242;20.886;2023-08-06T05:04:30;21.60;92.00
32524;DHT22;18965;52.242;20.886;2023-08-06T05:06:56;21.70;91.80
32524;DHT22;18965;52.242;20.886;2023-08-06T05:09:22;21.80;91.80
32524;DHT22;18965;52.242;20.886;2023-08-06T05:11:48;21.90;91.70
32524;DHT22;18965;52.242;20.886;2023-08-06T05:14:14;22.00;91.50
32524;DHT22;18965;52.242;20.886;2023-08-06T05:16:40;22.20;91.40
32524;DHT22;18965;52.242;20.886;2023-08-06T05:19:06;22.30;91.40
32524;DHT22;18965;52.242;20.886;2023-08-06T05:21:31;22.50;91.10
32524;DHT22;18965;52.242;20.886;2023-08-06T05:23:57;22.70;90.80
32524;DHT22;18965;52.242;20.886;2023-08-06T05:26:23;22.80;90.60
32524;DHT22;18965;52.242;20.886;2023-08-06T05:28:48;23.00;90.10
32524;DHT22;18965;52.242;20.886;2023-08-06T05:31:15;23.10;89.40
32524;DHT22;18965;52.242;20.886;2023-08-06T05:33:40;23.20;89.20
32524;DHT22;18965;52.242;20.886;2023-08-06T05:36:06;23.30;88.80
32524;DHT22;18965;52.242;20.886;2023-08-06T05:38:32;23.30;88.30
32524;DHT22;18965;52.242;20.886;2023-08-06T05:40:57;23.40;87.90
32524;DHT22;18965;52.242;20.886;2023-08-06T05:43:23;23.50;87.70
32524;DHT22;18965;52.242;20.886;2023-08-06T05:45:50;23.60;87.50
32524;DHT22;18965;52.242;20.886;2023-08-06T05:48:16;23.70;87.10
32524;DHT22;18965;52.242;20.886;2023-08-06T05:50:42;23.70;86.70
32524;DHT22;18965;52.242;20.886;2023-08-06T05:53:08;23.90;86.00
32524;DHT22;18965;52.242;20.886;2023-08-06T05:55:34;23.90;85.60
32524;DHT22;18965;52.242;20.886;2023-08-06T05:57:59;24.00;85.10
32524;DHT22;18965;52.242;20.886;2023-08-06T06:00:25;24.00;84.80
32524;DHT22;18965;52.242;20.886;2023-08-06T06:02:51;24.10;84.50
32524;DHT22;18965;52.242;20.886;2023-08-06T06:05:17;24.20;84.10
32524;DHT22;18965;52.242;20.886;2023-08-06T06:07:43;24.30;84.00
32524;DHT22;18965;52.242;20.886;2023-08-06T06:10:09;24.30;83.60
32524;DHT22;18965;52.242;20.886;2023-08-06T06:12:34;24.40;83.20
32524;DHT22;18965;52.242;20.886;2023-08-06T06:15:00;24.50;82.90
32524;DHT22;18965;52.242;20.886;2023-08-06T06:17:27;24.70;82.50
32524;DHT22;18965;52.242;20.886;2023-08-06T06:19:53;24.80;81.90
32524;DHT22;18965;52.242;20.886;2023-08-06T06:22:18;24.90;81.60
32524;DHT22;18965;52.242;20.886;2023-08-06T06:24:44;25.00;81.20
32524;DHT22;18965;52.242;20.886;2023-08-06T06:27:10;25.10;80.80
32524;DHT22;18965;52.242;20.886;2023-08-06T06:29:36;25.30;80.50
32524;DHT22;18965;52.242;20.886;2023-08-06T06:32:01;25.30;80.10
32524;DHT22;18965;52.242;20.886;2023-08-06T06:34:27;25.50;79.90
32524;DHT22;18965;52.242;20.886;2023-08-06T06:36:53;25.80;78.70
32524;DHT22;18965;52.242;20.886;2023-08-06T06:39:18;25.90;78.30
32524;DHT22;18965;52.242;20.886;2023-08-06T06:41:44;26.00;77.60
32524;DHT22;18965;52.242;20.886;2023-08-06T06:44:10;26.10;77.20
32524;DHT22;18965;52.242;20.886;2023-08-06T06:46:36;26.30;77.30
32524;DHT22;18965;52.242;20.886;2023-08-06T06:49:01;26.40;76.90
32524;DHT22;18965;52.242;20.886;2023-08-06T06:51:27;26.50;76.30
32524;DHT22;18965;52.242;20.886;2023-08-06T06:53:53;26.60;75.90
32524;DHT22;18965;52.242;20.886;2023-08-06T06:56:18;26.60;75.60
32524;DHT22;18965;52.242;20.886;2023-08-06T06:58:44;26.70;75.40
32524;DHT22;18965;52.242;20.886;2023-08-06T07:01:10;26.80;75.30
32524;DHT22;18965;52.242;20.886;2023-08-06T07:03:37;26.80;74.70
32524;DHT22;18965;52.242;20.886;2023-08-06T07:06:03;26.90;74.70
32524;DHT22;18965;52.242;20.886;2023-08-06T07:08:29;26.90;74.50
32524;DHT22;18965;52.242;20.886;2023-08-06T07:11:05;26.90;74.30
32524;DHT22;18965;52.242;20.886;2023-08-06T07:13:32;26.90;74.00
32524;DHT22;18965;52.242;20.886;2023-08-06T07:15:58;27.00;74.20
32524;DHT22;18965;52.242;20.886;2023-08-06T07:18:24;27.00;73.40
32524;DHT22;18965;52.242;20.886;2023-08-06T07:20:51;27.00;73.20
32524;DHT22;18965;52.242;20.886;2023-08-06T07:23:18;27.10;73.50
32524;DHT22;18965;52.242;20.886;2023-08-06T07:25:46;27.20;72.90
32524;DHT22;18965;52.242;20.886;2023-08-06T07:28:13;27.20;72.40
32524;DHT22;18965;52.242;20.886;2023-08-06T07:30:40;27.20;72.20
32524;DHT22;18965;52.242;20.886;2023-08-06T07:33:06;27.20;71.90
32524;DHT22;18965;52.242;20.886;2023-08-06T07:35:32;27.20;71.50
32524;DHT22;18965;52.242;20.886;2023-08-06T07:37:58;27.30;71.60
32524;DHT22;18965;52.242;20.886;2023-08-06T07:40:24;27.40;71.90
32524;DHT22;18965;52.242;20.886;2023-08-06T07:42:50;27.50;71.70
32524;DHT22;18965;52.242;20.886;2023-08-06T07:45:15;27.60;71.40
32524;DHT22;18965;52.242;20.886;2023-08-06T07:47:41;27.70;70.80
32524;DHT22;18965;52.242;20.886;2023-08-06T07:50:08;27.70;70.80
32524;DHT22;18965;52.242;20.886;2023-08-06T07:52:34;27.70;70.30
32524;DHT22;18965;52.242;20.886;2023-08-06T07:55:00;27.80;70.30
32524;DHT22;18965;52.242;20.886;2023-08-06T07:57:33;27.90;70.20
32524;DHT22;18965;52.242;20.886;2023-08-06T08:00:00;27.90;69.90
32524;DHT22;18965;52.242;20.886;2023-08-06T08:02:25;28.10;70.20
32524;DHT22;18965;52.242;20.886;2023-08-06T08:05:00;28.20;70.10
32524;DHT22;18965;52.242;20.886;2023-08-06T08:07:26;28.40;69.50
32524;DHT22;18965;52.242;20.886;2023-08-06T08:09:54;28.50;69.20
32524;DHT22;18965;52.242;20.886;2023-08-06T08:12:20;28.60;69.10
32524;DHT22;18965;52.242;20.886;2023-08-06T08:14:45;28.70;68.90
32524;DHT22;18965;52.242;20.886;2023-08-06T08:17:11;28.80;68.60
32524;DHT22;18965;52.242;20.886;2023-08-06T08:19:37;28.90;68.40
32524;DHT22;18965;52.242;20.886;2023-08-06T08:22:03;29.00;68.20
32524;DHT22;18965;52.242;20.886;2023-08-06T08:24:30;29.00;67.70
32524;DHT22;18965;52.242;20.886;2023-08-06T08:26:56;29.00;67.30
32524;DHT22;18965;52.242;20.886;2023-08-06T08:29:23;29.00;67.30
32524;DHT22;18965;52.242;20.886;2023-08-06T08:31:50;29.00;67.00
32524;DHT22;18965;52.242;20.886;2023-08-06T08:34:17;28.90;67.00
32524;DHT22;18965;52.242;20.886;2023-08-06T08:36:43;28.90;66.80
32524;DHT22;18965;52.242;20.886;2023-08-06T08:39:12;28.90;66.90
32524;DHT22;18965;52.242;20.886;2023-08-06T08:41:39;28.80;66.90
32524;DHT22;18965;52.242;20.886;2023-08-06T08:44:08;28.80;67.10
32524;DHT22;18965;52.242;20.886;2023-08-06T08:46:37;28.80;67.20
32524;DHT22;18965;52.242;20.886;2023-08-06T08:49:06;28.90;67.40
32524;DHT22;18965;52.242;20.886;2023-08-06T08:51:33;29.00;67.00
32524;DHT22;18965;52.242;20.886;2023-08-06T08:54:03;29.10;66.70
32524;DHT22;18965;52.242;20.886;2023-08-06T08:56:29;29.10;66.20
32524;DHT22;18965;52.242;20.886;2023-08-06T08:58:58;29.10;66.00
32524;DHT22;18965;52.242;20.886;2023-08-06T09:01:24;29.20;65.80
32524;DHT22;18965;52.242;20.886;2023-08-06T09:03:51;29.20;66.20
32524;DHT22;18965;52.242;20.886;2023-08-06T09:06:18;29.20;66.00
32524;DHT22;18965;52.242;20.886;2023-08-06T09:09:00;29.20;66.00
32524;DHT22;18965;52.242;20.886;2023-08-06T09:11:37;29.30;66.90
32524;DHT22;18965;52.242;20.886;2023-08-06T09:14:09;29.40;65.90
32524;DHT22;18965;52.242;20.886;2023-08-06T09:16:38;29.60;65.60
32524;DHT22;18965;52.242;20.886;2023-08-06T09:19:08;29.70;65.30
32524;DHT22;18965;52.242;20.886;2023-08-06T09:21:39;29.70;65.20
32524;DHT22;18965;52.242;20.886;2023-08-06T09:24:12;29.80;65.10
32524;DHT22;18965;52.242;20.886;2023-08-06T09:26:43;29.90;64.80
32524;DHT22;18965;52.242;20.886;2023-08-06T09:29:10;29.90;64.70
32524;DHT22;18965;52.242;20.886;2023-08-06T09:31:52;29.90;64.40
32524;DHT22;18965;52.242;20.886;2023-08-06T09:34:22;30.00;64.40
32524;DHT22;18965;52.242;20.886;2023-08-06T09:36:52;30.00;64.00
32524;DHT22;18965;52.242;20.886;2023-08-06T09:39:37;30.10;63.70
32524;DHT22;18965;52.242;20.886;2023-08-06T09:42:06;30.10;63.20
32524;DHT22;18965;52.242;20.886;2023-08-06T09:44:33;30.20;63.00
32524;DHT22;18965;52.242;20.886;2023-08-06T09:47:03;30.40;62.90
32524;DHT22;18965;52.242;20.886;2023-08-06T09:49:41;30.50;63.10
32524;DHT22;18965;52.242;20.886;2023-08-06T09:52:14;30.60;62.40
32524;DHT22;18965;52.242;20.886;2023-08-06T09:54:43;30.70;62.20
32524;DHT22;18965;52.242;20.886;2023-08-06T09:57:09;30.70;62.00
32524;DHT22;18965;52.242;20.886;2023-08-06T09:59:37;30.70;61.90
32524;DHT22;18965;52.242;20.886;2023-08-06T10:02:11;30.60;61.30
32524;DHT22;18965;52.242;20.886;2023-08-06T10:04:37;30.60;61.40
32524;DHT22;18965;52.242;20.886;2023-08-06T10:07:03;30.60;61.30
32524;DHT22;18965;52.242;20.886;2023-08-06T10:09:30;30.50;60.90
32524;DHT22;18965;52.242;20.886;2023-08-06T10:11:59;30.50;60.50
32524;DHT22;18965;52.242;20.886;2023-08-06T10:14:30;30.50;60.80
32524;DHT22;18965;52.242;20.886;2023-08-06T10:16:58;30.50;60.90
32524;DHT22;18965;52.242;20.886;2023-08-06T10:19:25;30.50;60.70
32524;DHT22;18965;52.242;20.886;2023-08-06T10:22:12;30.40;60.40
32524;DHT22;18965;52.242;20.886;2023-08-06T10:24:53;30.40;60.10
32524;DHT22;18965;52.242;20.886;2023-08-06T10:30:24;30.40;60.60
32524;DHT22;18965;52.242;20.886;2023-08-06T10:32:55;30.30;60.50
32524;DHT22;18965;52.242;20.886;2023-08-06T10:35:43;30.40;60.50
32524;DHT22;18965;52.242;20.886;2023-08-06T10:38:22;30.30;59.80
32524;DHT22;18965;52.242;20.886;2023-08-06T10:43:34;30.30;59.80
32524;DHT22;18965;52.242;20.886;2023-08-06T10:46:01;30.30;59.50
32524;DHT22;18965;52.242;20.886;2023-08-06T10:48:45;30.40;59.60
32524;DHT22;18965;52.242;20.886;2023-08-06T10:51:14;30.40;59.10
32524;DHT22;18965;52.242;20.886;2023-08-06T10:53:46;30.40;59.10
32524;DHT22;18965;52.242;20.886;2023-08-06T10:56:30;30.40;59.50
32524;DHT22;18965;52.242;20.886;2023-08-06T10:58:57;30.40;59.30
32524;DHT22;18965;52.242;20.886;2023-08-06T11:01:24;30.30;59.30
32524;DHT22;18965;52.242;20.886;2023-08-06T11:03:53;30.30;59.80
32524;DHT22;18965;52.242;20.886;2023-08-06T11:06:22;30.30;59.50
32524;DHT22;18965;52.242;20.886;2023-08-06T11:08:57;30.20;59.40
32524;DHT22;18965;52.242;20.886;2023-08-06T11:11:24;30.20;59.30
32524;DHT22;18965;52.242;20.886;2023-08-06T11:13:50;30.20;59.70
32524;DHT22;18965;52.242;20.886;2023-08-06T11:16:22;30.30;59.60
32524;DHT22;18965;52.242;20.886;2023-08-06T11:18:51;30.40;59.50
32524;DHT22;18965;52.242;20.886;2023-08-06T11:21:25;30.40;59.10
32524;DHT22;18965;52.242;20.886;2023-08-06T11:23:55;30.50;58.80
32524;DHT22;18965;52.242;20.886;2023-08-06T11:26:23;30.50;59.20
32524;DHT22;18965;52.242;20.886;2023-08-06T11:28:50;30.60;59.00
32524;DHT22;18965;52.242;20.886;2023-08-06T11:31:28;30.60;58.60
32524;DHT22;18965;52.242;20.886;2023-08-06T11:33:55;30.70;58.40
32524;DHT22;18965;52.242;20.886;2023-08-06T11:36:31;30.80;58.60
32524;DHT22;18965;52.242;20.886;2023-08-06T11:39:00;30.90;58.00
32524;DHT22;18965;52.242;20.886;2023-08-06T11:41:40;31.00;57.90
32524;DHT22;18965;52.242;20.886;2023-08-06T11:44:11;31.10;57.70
32524;DHT22;18965;52.242;20.886;2023-08-06T11:46:54;31.10;57.80
32524;DHT22;18965;52.242;20.886;2023-08-06T11:49:44;31.00;57.40
32524;DHT22;18965;52.242;20.886;2023-08-06T11:52:23;31.00;57.40
32524;DHT22;18965;52.242;20.886;2023-08-06T11:57:34;30.80;57.90
32524;DHT22;18965;52.242;20.886;2023-08-06T12:02:34;30.70;57.80
32524;DHT22;18965;52.242;20.886;2023-08-06T12:07:41;30.80;57.70
32524;DHT22;18965;52.242;20.886;2023-08-06T12:10:07;31.00;57.90
32524;DHT22;18965;52.242;20.886;2023-08-06T12:12:36;31.10;57.40
32524;DHT22;18965;52.242;20.886;2023-08-06T12:15:07;31.20;56.70
32524;DHT22;18965;52.242;20.886;2023-08-06T12:17:34;31.20;56.50
32524;DHT22;18965;52.242;20.886;2023-08-06T12:20:00;31.20;55.70
32524;DHT22;18965;52.242;20.886;2023-08-06T12:22:26;31.20;55.30
32524;DHT22;18965;52.242;20.886;2023-08-06T12:24:52;31.20;54.80
32524;DHT22;18965;52.242;20.886;2023-08-06T12:27:21;31.10;54.40
32524;DHT22;18965;52.242;20.886;2023-08-06T12:29:49;31.10;54.30
32524;DHT22;18965;52.242;20.886;2023-08-06T12:32:15;31.10;54.40
32524;DHT22;18965;52.242;20.886;2023-08-06T12:34:42;31.00;54.40
32524;DHT22;18965;52.242;20.886;2023-08-06T12:37:08;31.00;54.10
32524;DHT22;18965;52.242;20.886;2023-08-06T12:39:35;31.00;54.20
32524;DHT22;18965;52.242;20.886;2023-08-06T12:42:02;30.90;54.20
32524;DHT22;18965;52.242;20.886;2023-08-06T12:44:28;30.80;54.30
32524;DHT22;18965;52.242;20.886;2023-08-06T12:47:00;30.70;54.40
32524;DHT22;18965;52.242;20.886;2023-08-06T12:49:26;30.60;54.10
32524;DHT22;18965;52.242;20.886;2023-08-06T12:51:58;30.40;54.10
32524;DHT22;18965;52.242;20.886;2023-08-06T12:54:25;30.30;54.40
32524;DHT22;18965;52.242;20.886;2023-08-06T12:56:52;30.10;54.80
32524;DHT22;18965;52.242;20.886;2023-08-06T12:59:18;30.10;55.10
32524;DHT22;18965;52.242;20.886;2023-08-06T13:01:52;30.00;55.30
32524;DHT22;18965;52.242;20.886;2023-08-06T13:04:18;30.00;55.60
32524;DHT22;18965;52.242;20.886;2023-08-06T13:06:50;29.90;55.40
32524;DHT22;18965;52.242;20.886;2023-08-06T13:09:16;30.00;55.50
32524;DHT22;18965;52.242;20.886;2023-08-06T13:11:42;30.00;55.60
32524;DHT22;18965;52.242;20.886;2023-08-06T13:14:12;30.00;55.50
32524;DHT22;18965;52.242;20.886;2023-08-06T13:16:40;30.00;55.50
32524;DHT22;18965;52.242;20.886;2023-08-06T13:19:09;30.10;55.50
32524;DHT22;18965;52.242;20.886;2023-08-06T13:21:59;30.20;55.60
32524;DHT22;18965;52.242;20.886;2023-08-06T13:24:26;30.30;55.10
32524;DHT22;18965;52.242;20.886;2023-08-06T13:26:53;30.30;55.40
32524;DHT22;18965;52.242;20.886;2023-08-06T13:29:18;30.30;56.00
32524;DHT22;18965;52.242;20.886;2023-08-06T13:31:45;30.30;55.70
32524;DHT22;18965;52.242;20.886;2023-08-06T13:34:14;30.30;56.20
32524;DHT22;18965;52.242;20.886;2023-08-06T13:36:42;30.40;56.20
32524;DHT22;18965;52.242;20.886;2023-08-06T13:39:09;30.40;56.20
32524;DHT22;18965;52.242;20.886;2023-08-06T13:41:51;30.30;56.30
32524;DHT22;18965;52.242;20.886;2023-08-06T13:44:35;30.30;56.50
32524;DHT22;18965;52.242;20.886;2023-08-06T13:53:25;30.00;56.80
32524;DHT22;18965;52.242;20.886;2023-08-06T13:56:47;30.00;57.10
32524;DHT22;18965;52.242;20.886;2023-08-06T13:59:42;30.00;57.30
32524;DHT22;18965;52.242;20.886;2023-08-06T14:20:11;29.60;58.20
32524;DHT22;18965;52.242;20.886;2023-08-06T14:26:19;29.50;58.60
32524;DHT22;18965;52.242;20.886;2023-08-06T14:29:01;29.50;58.50
32524;DHT22;18965;52.242;20.886;2023-08-06T14:35:10;29.50;58.00
32524;DHT22;18965;52.242;20.886;2023-08-06T14:44:49;29.40;58.10
32524;DHT22;18965;52.242;20.886;2023-08-06T14:47:17;29.40;58.20
32524;DHT22;18965;52.242;20.886;2023-08-06T14:49:43;29.40;58.50
32524;DHT22;18965;52.242;20.886;2023-08-06T14:52:13;29.50;58.70
32524;DHT22;18965;52.242;20.886;2023-08-06T14:54:39;29.50;58.80
32524;DHT22;18965;52.242;20.886;2023-08-06T14:57:05;29.50;58.80
32524;DHT22;18965;52.242;20.886;2023-08-06T14:59:31;29.50;59.00
32524;DHT22;18965;52.242;20.886;2023-08-06T15:01:56;29.40;59.20
32524;DHT22;18965;52.242;20.886;2023-08-06T15:04:25;29.50;59.30
32524;DHT22;18965;52.242;20.886;2023-08-06T15:06:51;29.50;59.10
32524;DHT22;18965;52.242;20.886;2023-08-06T15:09:16;29.40;58.80
32524;DHT22;18965;52.242;20.886;2023-08-06T15:11:42;29.40;58.90
32524;DHT22;18965;52.242;20.886;2023-08-06T15:14:08;29.30;58.80
32524;DHT22;18965;52.242;20.886;2023-08-06T15:16:34;29.30;58.90
32524;DHT22;18965;52.242;20.886;2023-08-06T15:19:02;29.20;58.90
32524;DHT22;18965;52.242;20.886;2023-08-06T15:21:28;29.10;58.80
32524;DHT22;18965;52.242;20.886;2023-08-06T15:23:54;29.10;58.70
32524;DHT22;18965;52.242;20.886;2023-08-06T15:26:20;29.10;58.60
32524;DHT22;18965;52.242;20.886;2023-08-06T15:28:49;29.00;58.20
32524;DHT22;18965;52.242;20.886;2023-08-06T15:31:19;29.00;58.30
32524;DHT22;18965;52.242;20.886;2023-08-06T15:33:45;28.90;58.20
32524;DHT22;18965;52.242;20.886;2023-08-06T15:36:11;28.90;57.90
32524;DHT22;18965;52.242;20.886;2023-08-06T15:38:36;28.90;57.90
32524;DHT22;18965;52.242;20.886;2023-08-06T15:41:02;28.90;58.10
32524;DHT22;18965;52.242;20.886;2023-08-06T15:43:28;28.80;58.10
32524;DHT22;18965;52.242;20.886;2023-08-06T15:45:54;28.70;58.10
32524;DHT22;18965;52.242;20.886;2023-08-06T15:48:26;28.60;58.20
32524;DHT22;18965;52.242;20.886;2023-08-06T15:50:52;28.50;58.20
32524;DHT22;18965;52.242;20.886;2023-08-06T15:53:21;28.50;58.00
32524;DHT22;18965;52.242;20.886;2023-08-06T15:55:46;28.30;57.90
32524;DHT22;18965;52.242;20.886;2023-08-06T15:58:12;28.30;57.80
32524;DHT22;18965;52.242;20.886;2023-08-06T16:00:38;28.30;58.10
32524;DHT22;18965;52.242;20.886;2023-08-06T16:03:04;28.20;58.10
32524;DHT22;18965;52.242;20.886;2023-08-06T16:05:29;28.20;58.20
32524;DHT22;18965;52.242;20.886;2023-08-06T16:07:56;28.10;58.30
32524;DHT22;18965;52.242;20.886;2023-08-06T16:10:22;28.10;58.40
32524;DHT22;18965;52.242;20.886;2023-08-06T16:12:47;28.10;58.40
32524;DHT22;18965;52.242;20.886;2023-08-06T16:15:13;28.10;58.60
32524;DHT22;18965;52.242;20.886;2023-08-06T16:17:45;28.00;58.40